Terminal Aerodrome Forecast
Issued by NWS

Home | Current Version | Previous Version | Graphics & Text | Print | Product List | Glossary On
Versions: 1 2 3 4 5 6 7 8 9 10 11 12 13 14 15 16
878
FTUS43 KMPX 060520
TAFRNH
TAF
KRNH 060520Z 0606/0706 19013G20KT P6SM OVC035
     FM060800 22013KT P6SM OVC025
     FM061500 24017G30KT P6SM OVC025 PROB30 0619/0624 4SM -SHSN
      OVC015
     FM070000 25018G26KT P6SM OVC035=

USA.gov is the U.S. government's official web portal to all federal, state and local government web resources and services.